createdAt,value
2023-08-03T00:00:29.712Z,20.5355835
2023-08-03T00:01:31.707Z,20.5557251
2023-08-03T00:02:33.010Z,20.5657959
2023-08-03T00:03:34.469Z,20.5557251
2023-08-03T00:04:35.452Z,20.5657959
2023-08-03T00:05:36.514Z,20.5657959
2023-08-03T00:06:38.727Z,20.5758667
2023-08-03T00:07:40.719Z,20.5758667
2023-08-03T00:08:41.968Z,20.5657959
2023-08-03T00:09:43.970Z,20.5657959
2023-08-03T00:10:45.782Z,20.5355835
2023-08-03T00:12:17.387Z,20.50537109
2023-08-03T00:13:19.053Z,20.47515869
2023-08-03T00:14:20.424Z,20.41473389
2023-08-03T00:15:21.564Z,20.40466309
2023-08-03T00:16:22.770Z,20.37445068
2023-08-03T00:17:24.952Z,20.38452148
2023-08-03T00:18:26.070Z,20.40466309
2023-08-03T00:19:27.223Z,20.38452148
2023-08-03T00:20:29.230Z,20.40466309
2023-08-03T00:21:30.429Z,20.38452148
2023-08-03T00:22:31.602Z,20.37445068
2023-08-03T00:23:32.917Z,20.38452148
2023-08-03T00:24:34.209Z,20.38452148
2023-08-03T00:25:35.527Z,20.40466309
2023-08-03T00:26:36.762Z,20.37445068
2023-08-03T00:27:38.735Z,20.33416748
2023-08-03T00:28:39.909Z,20.33416748
2023-08-03T00:29:41.644Z,20.31402588
2023-08-03T00:30:42.728Z,20.33416748
2023-08-03T00:31:45.127Z,20.33416748
2023-08-03T00:33:16.741Z,20.27374268
2023-08-03T00:34:17.880Z,20.26367188
2023-08-03T00:35:19.033Z,20.25360107
2023-08-03T00:36:20.042Z,20.26367188
2023-08-03T00:37:22.271Z,20.22338867
2023-08-03T00:38:23.519Z,20.20324707
2023-08-03T00:39:24.736Z,20.19317627
2023-08-03T00:40:25.869Z,20.19317627
2023-08-03T00:41:26.946Z,20.19317627
2023-08-03T00:42:28.066Z,20.19317627
2023-08-03T00:43:30.148Z,20.19317627
2023-08-03T00:44:31.458Z,20.19317627
2023-08-03T00:45:32.612Z,20.19317627
2023-08-03T00:46:33.713Z,20.17303467
2023-08-03T00:47:35.626Z,20.19317627
2023-08-03T00:48:36.748Z,20.19317627
2023-08-03T00:49:38.735Z,20.13275146
2023-08-03T00:50:39.957Z,20.12268066
2023-08-03T00:51:41.383Z,20.07232666
2023-08-03T00:52:42.117Z,20.05218506
2023-08-03T00:53:43.084Z,20.05218506
2023-08-03T00:54:44.478Z,20.07232666
2023-08-03T00:56:16.356Z,20.05218506
2023-08-03T00:57:18.120Z,20.04211426
2023-08-03T00:58:20.073Z,20.02197266
2023-08-03T00:59:21.180Z,20.01190186
2023-08-03T01:00:22.348Z,19.97161865
2023-08-03T01:01:24.209Z,19.95147705
2023-08-03T01:02:25.450Z,19.95147705
2023-08-03T01:03:26.829Z,19.94140625
2023-08-03T01:04:27.889Z,19.97161865
2023-08-03T01:05:28.944Z,19.94140625
2023-08-03T01:06:30.144Z,19.94140625
2023-08-03T01:07:31.967Z,19.95147705
2023-08-03T01:08:33.708Z,19.98168945
2023-08-03T01:09:35.732Z,20.00183105
2023-08-03T01:10:37.662Z,20.00183105
2023-08-03T01:11:38.692Z,20.00183105
2023-08-03T01:12:39.916Z,20.01190186
2023-08-03T01:13:41.669Z,20.02197266
2023-08-03T01:14:43.004Z,20.01190186
2023-08-03T01:15:44.785Z,19.97161865
2023-08-03T01:17:17.136Z,19.95147705
2023-08-03T01:18:18.366Z,19.92126465
2023-08-03T01:19:19.442Z,19.90112305
2023-08-03T01:20:21.042Z,19.92126465
2023-08-03T01:21:22.073Z,19.92126465
2023-08-03T01:22:23.181Z,19.92126465
2023-08-03T01:23:25.167Z,19.90112305
2023-08-03T01:24:26.337Z,19.90112305
2023-08-03T01:25:28.251Z,19.89105225
2023-08-03T01:26:29.368Z,19.90112305
2023-08-03T01:27:31.149Z,19.89105225
2023-08-03T01:28:33.072Z,19.92126465
2023-08-03T01:29:34.198Z,19.90112305
2023-08-03T01:30:35.507Z,19.89105225
2023-08-03T01:31:37.162Z,19.86083984
2023-08-03T01:32:38.719Z,19.86083984
2023-08-03T01:33:39.786Z,19.87091064
2023-08-03T01:34:40.994Z,19.89105225
2023-08-03T01:35:42.697Z,19.89105225
2023-08-03T01:36:44.569Z,19.86083984
2023-08-03T01:38:17.279Z,19.87091064
2023-08-03T01:39:19.062Z,19.87091064
2023-08-03T01:40:20.077Z,19.89105225
2023-08-03T01:41:21.046Z,19.87091064
2023-08-03T01:42:22.195Z,19.87091064
2023-08-03T01:43:24.121Z,19.90112305
2023-08-03T01:44:25.249Z,19.92126465
2023-08-03T01:45:26.320Z,19.94140625
2023-08-03T01:46:27.468Z,19.98168945
2023-08-03T01:47:29.062Z,19.98168945
2023-08-03T01:48:30.145Z,20.02197266
2023-08-03T01:49:32.138Z,19.97161865
2023-08-03T01:50:33.406Z,19.95147705
2023-08-03T01:51:34.364Z,19.95147705
2023-08-03T01:52:36.101Z,19.94140625
2023-08-03T01:53:38.117Z,19.92126465
2023-08-03T01:54:39.196Z,19.90112305
2023-08-03T01:55:40.335Z,19.89105225
2023-08-03T01:56:41.308Z,19.89105225
2023-08-03T01:57:43.076Z,19.92126465
2023-08-03T01:58:44.878Z,19.94140625
2023-08-03T02:00:17.244Z,19.90112305
2023-08-03T02:01:19.243Z,19.89105225
2023-08-03T02:02:20.256Z,19.87091064
2023-08-03T02:03:21.358Z,19.86083984
2023-08-03T02:04:22.619Z,19.89105225
2023-08-03T02:05:24.212Z,19.90112305
2023-08-03T02:06:25.392Z,19.94140625
2023-08-03T02:07:26.483Z,19.97161865
2023-08-03T02:08:28.116Z,19.97161865
2023-08-03T02:09:30.111Z,19.92126465
2023-08-03T02:10:31.145Z,19.90112305
2023-08-03T02:11:32.237Z,19.89105225
2023-08-03T02:12:33.337Z,19.89105225
2023-08-03T02:13:35.159Z,19.92126465
2023-08-03T02:14:36.254Z,19.89105225
2023-08-03T02:15:37.274Z,19.86083984
2023-08-03T02:16:38.385Z,19.86083984
2023-08-03T02:17:40.119Z,19.86083984
2023-08-03T02:18:42.137Z,19.86083984
2023-08-03T02:19:43.268Z,19.82055664
2023-08-03T02:20:44.663Z,19.79034424
2023-08-03T02:22:16.122Z,19.78027344
2023-08-03T02:23:17.173Z,19.70977783
2023-08-03T02:24:18.270Z,19.67956543
2023-08-03T02:25:19.454Z,19.64935303
2023-08-03T02:26:20.557Z,19.63928223
2023-08-03T02:27:22.229Z,19.60906982
2023-08-03T02:28:24.122Z,19.52850342
2023-08-03T02:29:26.143Z,19.49829102
2023-08-03T02:30:27.348Z,19.49829102
2023-08-03T02:31:29.170Z,19.49829102
2023-08-03T02:32:30.353Z,19.49829102
2023-08-03T02:33:31.496Z,19.51843262
2023-08-03T02:34:32.544Z,19.52850342
2023-08-03T02:35:33.736Z,19.56878662
2023-08-03T02:36:34.854Z,19.57885742
2023-08-03T02:37:36.008Z,19.60906982
2023-08-03T02:38:37.596Z,19.56878662
2023-08-03T02:39:39.550Z,19.46807861
2023-08-03T02:40:40.550Z,19.42779541
2023-08-03T02:41:41.769Z,19.45800781
2023-08-03T02:42:42.891Z,19.44793701
2023-08-03T02:44:15.583Z,19.45800781
2023-08-03T02:45:16.654Z,19.44793701
2023-08-03T02:46:17.805Z,19.42779541
2023-08-03T02:47:18.912Z,19.39758301
2023-08-03T02:48:20.654Z,19.39758301
2023-08-03T02:49:21.971Z,19.38751221
2023-08-03T02:50:23.060Z,19.38751221
2023-08-03T02:51:24.226Z,19.38751221
2023-08-03T02:52:25.265Z,19.37744141
2023-08-03T02:53:26.486Z,19.38751221
2023-08-03T02:54:27.718Z,19.3170166
2023-08-03T02:55:28.937Z,19.2666626
2023-08-03T02:56:30.062Z,19.246521
2023-08-03T02:57:31.624Z,19.20623779
2023-08-03T02:58:33.687Z,19.2364502
2023-08-03T02:59:35.622Z,19.246521
2023-08-03T03:00:36.818Z,19.2364502
2023-08-03T03:01:38.840Z,19.2666626
2023-08-03T03:02:39.938Z,19.2767334
2023-08-03T03:03:41.110Z,19.296875
2023-08-03T03:04:42.222Z,19.296875
2023-08-03T03:05:43.481Z,19.22637939
2023-08-03T03:07:16.168Z,19.16595459
2023-08-03T03:08:18.080Z,19.12567139
2023-08-03T03:09:19.202Z,19.11560059
2023-08-03T03:10:20.405Z,19.16595459
2023-08-03T03:11:22.285Z,19.20623779
2023-08-03T03:12:23.565Z,19.19616699
2023-08-03T03:13:24.686Z,19.15588379
2023-08-03T03:14:25.704Z,19.11560059
2023-08-03T03:15:26.797Z,19.06524658
2023-08-03T03:16:28.018Z,19.06524658
2023-08-03T03:17:29.415Z,19.05517578
2023-08-03T03:18:31.207Z,19.06524658
2023-08-03T03:19:32.378Z,19.09545898
2023-08-03T03:20:33.495Z,19.11560059
2023-08-03T03:21:34.558Z,19.14581299
2023-08-03T03:22:35.841Z,19.14581299
2023-08-03T03:23:37.026Z,19.11560059
2023-08-03T03:24:38.224Z,19.09545898
2023-08-03T03:25:39.344Z,19.11560059
2023-08-03T03:26:40.402Z,19.12567139
2023-08-03T03:27:41.669Z,19.08538818
2023-08-03T03:28:44.198Z,19.11560059
2023-08-03T03:30:16.053Z,19.08538818
2023-08-03T03:31:18.160Z,19.06524658
2023-08-03T03:32:19.393Z,19.08538818
2023-08-03T03:33:20.634Z,19.08538818
2023-08-03T03:34:21.794Z,19.05517578
2023-08-03T03:35:22.981Z,19.08538818
2023-08-03T03:36:24.188Z,19.08538818
2023-08-03T03:37:26.134Z,19.04510498
2023-08-03T03:38:28.139Z,19.08538818
2023-08-03T03:39:29.271Z,19.09545898
2023-08-03T03:40:30.471Z,19.06524658
2023-08-03T03:41:32.344Z,19.04510498
2023-08-03T03:42:33.572Z,19.05517578
2023-08-03T03:43:34.729Z,19.08538818
2023-08-03T03:44:36.696Z,19.09545898
2023-08-03T03:45:38.008Z,19.12567139
2023-08-03T03:46:39.215Z,19.12567139
2023-08-03T03:47:40.580Z,19.05517578
2023-08-03T03:48:42.698Z,18.99475098
2023-08-03T03:49:44.602Z,18.96453857
2023-08-03T03:51:17.343Z,19.01489258
2023-08-03T03:52:18.624Z,19.01489258
2023-08-03T03:53:19.915Z,19.04510498
2023-08-03T03:54:21.700Z,19.05517578
2023-08-03T03:55:22.714Z,19.06524658
2023-08-03T03:56:23.831Z,19.09545898
2023-08-03T03:57:25.035Z,19.11560059
2023-08-03T03:58:27.280Z,19.08538818
2023-08-03T03:59:28.535Z,19.11560059
2023-08-03T04:00:29.713Z,19.11560059
2023-08-03T04:01:31.684Z,19.15588379
2023-08-03T04:02:32.790Z,19.16595459
2023-08-03T04:03:34.062Z,19.20623779
2023-08-03T04:04:35.331Z,19.16595459
2023-08-03T04:05:36.546Z,19.15588379
2023-08-03T04:06:37.819Z,19.16595459
2023-08-03T04:07:38.870Z,19.11560059
2023-08-03T04:08:40.715Z,19.06524658
2023-08-03T04:09:41.876Z,19.01489258
2023-08-03T04:10:43.086Z,18.94439697
2023-08-03T04:12:15.795Z,18.87390137
2023-08-03T04:13:16.921Z,18.84368896
2023-08-03T04:14:18.674Z,18.86383057
2023-08-03T04:15:19.895Z,18.86383057
2023-08-03T04:16:21.133Z,18.89404297
2023-08-03T04:17:22.358Z,18.91418457
2023-08-03T04:18:23.491Z,18.93432617
2023-08-03T04:19:25.117Z,19.02496338
2023-08-03T04:20:26.217Z,19.04510498
2023-08-03T04:21:27.474Z,19.06524658
2023-08-03T04:22:28.692Z,19.11560059
2023-08-03T04:23:29.979Z,19.14581299
2023-08-03T04:24:31.178Z,19.14581299
2023-08-03T04:25:32.317Z,19.15588379
2023-08-03T04:26:33.449Z,19.20623779
2023-08-03T04:27:34.618Z,19.22637939
2023-08-03T04:28:36.665Z,19.19616699
2023-08-03T04:29:37.981Z,19.20623779
2023-08-03T04:30:39.644Z,19.20623779
2023-08-03T04:31:41.815Z,19.20623779
2023-08-03T04:32:42.900Z,19.20623779
2023-08-03T04:33:44.883Z,19.20623779
2023-08-03T04:35:16.698Z,19.2364502
2023-08-03T04:36:17.891Z,19.16595459
2023-08-03T04:37:19.037Z,19.14581299
2023-08-03T04:38:20.159Z,19.09545898
2023-08-03T04:39:22.260Z,19.06524658
2023-08-03T04:40:23.441Z,19.04510498
2023-08-03T04:41:25.199Z,19.01489258
2023-08-03T04:42:26.438Z,19.02496338
2023-08-03T04:43:27.558Z,19.02496338
2023-08-03T04:44:28.649Z,19.05517578
2023-08-03T04:45:29.827Z,19.05517578
2023-08-03T04:46:31.076Z,19.05517578
2023-08-03T04:47:32.273Z,19.06524658
2023-08-03T04:48:33.423Z,19.04510498
2023-08-03T04:49:35.172Z,18.99475098
2023-08-03T04:50:36.349Z,18.96453857
2023-08-03T04:51:37.619Z,18.96453857
2023-08-03T04:52:38.861Z,18.99475098
2023-08-03T04:53:40.021Z,18.99475098
2023-08-03T04:54:41.088Z,19.01489258
2023-08-03T04:55:42.201Z,18.99475098
2023-08-03T04:56:44.190Z,18.96453857
2023-08-03T04:58:16.058Z,19.01489258
2023-08-03T04:59:17.820Z,19.04510498
2023-08-03T05:00:22.613Z,19.05517578
2023-08-03T05:01:21.701Z,19.06524658
2023-08-03T05:02:22.928Z,19.08538818
2023-08-03T05:03:24.052Z,19.08538818
2023-08-03T05:04:25.288Z,19.08538818
2023-08-03T05:05:26.395Z,19.08538818
2023-08-03T05:06:27.664Z,19.08538818
2023-08-03T05:07:29.829Z,19.09545898
2023-08-03T05:08:31.046Z,19.08538818
2023-08-03T05:09:32.723Z,19.08538818
2023-08-03T05:10:33.896Z,19.11560059
2023-08-03T05:11:35.634Z,19.15588379
2023-08-03T05:12:36.706Z,19.16595459
2023-08-03T05:13:37.735Z,19.14581299
2023-08-03T05:14:38.809Z,19.14581299
2023-08-03T05:15:39.902Z,19.14581299
2023-08-03T05:16:41.056Z,19.15588379
2023-08-03T05:17:42.181Z,19.14581299
2023-08-03T05:18:43.211Z,19.12567139
2023-08-03T05:20:15.800Z,19.12567139
2023-08-03T05:21:16.881Z,19.15588379
2023-08-03T05:22:18.009Z,19.14581299
2023-08-03T05:23:19.144Z,19.11560059
2023-08-03T05:24:20.322Z,19.09545898
2023-08-03T05:25:21.390Z,19.11560059
2023-08-03T05:26:22.481Z,19.12567139
2023-08-03T05:27:23.579Z,19.16595459
2023-08-03T05:28:25.660Z,19.19616699
2023-08-03T05:29:27.623Z,19.15588379
2023-08-03T05:30:28.739Z,19.12567139
2023-08-03T05:31:30.773Z,19.12567139
2023-08-03T05:32:31.881Z,19.12567139
2023-08-03T05:33:33.053Z,19.12567139
2023-08-03T05:34:34.058Z,19.09545898
2023-08-03T05:35:35.227Z,19.09545898
2023-08-03T05:36:36.336Z,19.11560059
2023-08-03T05:37:38.281Z,19.11560059
2023-08-03T05:38:39.528Z,19.11560059
2023-08-03T05:39:41.206Z,19.11560059
2023-08-03T05:40:42.247Z,19.16595459
2023-08-03T05:42:14.995Z,19.20623779
2023-08-03T05:43:16.193Z,19.2364502
2023-08-03T05:44:18.317Z,19.2666626
2023-08-03T05:45:19.459Z,19.3069458
2023-08-03T05:46:22.822Z,19.347229
2023-08-03T05:47:21.832Z,19.39758301
2023-08-03T05:48:23.001Z,19.41772461
2023-08-03T05:49:24.653Z,19.44793701
2023-08-03T05:50:25.734Z,19.48822021
2023-08-03T05:51:27.009Z,19.52850342
2023-08-03T05:52:28.040Z,19.52850342
2023-08-03T05:53:30.133Z,19.49829102
2023-08-03T05:54:31.273Z,19.44793701
2023-08-03T05:55:32.345Z,19.46807861
2023-08-03T05:56:33.488Z,19.46807861
2023-08-03T05:57:34.609Z,19.46807861
2023-08-03T05:58:36.649Z,19.49829102
2023-08-03T05:59:38.711Z,19.52850342
2023-08-03T06:00:39.817Z,19.57885742
2023-08-03T06:01:41.831Z,19.59899902
2023-08-03T06:02:43.055Z,19.64935303
2023-08-03T06:04:15.049Z,19.63928223
2023-08-03T06:05:16.187Z,19.66949463
2023-08-03T06:06:17.564Z,19.63928223
2023-08-03T06:07:19.167Z,19.64935303
2023-08-03T06:08:21.061Z,19.66949463
2023-08-03T06:09:23.145Z,19.69970703
2023-08-03T06:10:24.867Z,19.70977783
2023-08-03T06:11:27.884Z,19.71984863
2023-08-03T06:12:29.190Z,19.71984863
2023-08-03T06:13:30.540Z,19.71984863
2023-08-03T06:14:31.854Z,19.75006104
2023-08-03T06:15:33.041Z,19.70977783
2023-08-03T06:16:34.778Z,19.71984863
2023-08-03T06:17:36.043Z,19.69970703
2023-08-03T06:18:37.175Z,19.66949463
2023-08-03T06:19:39.178Z,19.67956543
2023-08-03T06:20:40.448Z,19.70977783
2023-08-03T06:21:41.646Z,19.67956543
2023-08-03T06:22:42.785Z,19.69970703
2023-08-03T06:24:15.062Z,19.69970703
2023-08-03T06:25:16.159Z,19.70977783
2023-08-03T06:26:17.389Z,19.71984863
2023-08-03T06:27:18.514Z,19.71984863
2023-08-03T06:28:20.663Z,19.76013184
2023-08-03T06:29:21.880Z,19.78027344
2023-08-03T06:30:23.617Z,19.78027344
2023-08-03T06:31:25.778Z,19.78027344
2023-08-03T06:32:26.830Z,19.76013184
2023-08-03T06:33:27.903Z,19.76013184
2023-08-03T06:34:29.064Z,19.78027344
2023-08-03T06:35:30.207Z,19.79034424
2023-08-03T06:36:31.292Z,19.82055664
2023-08-03T06:37:32.401Z,19.86083984
2023-08-03T06:38:33.537Z,19.87091064
2023-08-03T06:39:35.152Z,19.87091064
2023-08-03T06:40:37.201Z,19.92126465
2023-08-03T06:41:38.271Z,19.94140625
2023-08-03T06:42:39.457Z,19.92126465
2023-08-03T06:43:41.631Z,19.92126465
2023-08-03T06:44:43.170Z,19.90112305
2023-08-03T06:46:15.840Z,19.92126465
2023-08-03T06:47:16.802Z,19.95147705
2023-08-03T06:48:17.760Z,20.01190186
2023-08-03T06:49:18.775Z,20.07232666
2023-08-03T06:50:20.610Z,20.10253906
2023-08-03T06:51:22.663Z,20.12268066
2023-08-03T06:52:23.662Z,20.17303467
2023-08-03T06:53:24.734Z,20.16296387
2023-08-03T06:54:25.783Z,20.20324707
2023-08-03T06:55:26.866Z,20.22338867
2023-08-03T06:56:28.655Z,20.23345947
2023-08-03T06:57:30.641Z,20.25360107
2023-08-03T06:58:32.649Z,20.23345947
2023-08-03T06:59:33.674Z,20.20324707
2023-08-03T07:00:35.665Z,20.23345947
2023-08-03T07:01:36.650Z,20.26367188
2023-08-03T07:02:37.825Z,20.27374268
2023-08-03T07:03:39.801Z,20.26367188
2023-08-03T07:04:40.732Z,20.30395508
2023-08-03T07:05:41.787Z,20.37445068
2023-08-03T07:07:13.810Z,20.35430908
2023-08-03T07:08:14.936Z,20.35430908
2023-08-03T07:09:16.689Z,20.38452148
2023-08-03T07:10:18.664Z,20.38452148
2023-08-03T07:11:19.618Z,20.41473389
2023-08-03T07:12:21.141Z,20.41473389
2023-08-03T07:13:22.137Z,20.41473389
2023-08-03T07:14:23.146Z,20.45501709
2023-08-03T07:15:24.192Z,20.44494629
2023-08-03T07:16:26.236Z,20.47515869
2023-08-03T07:17:27.146Z,20.49530029
2023-08-03T07:18:28.301Z,20.5255127
2023-08-03T07:19:30.166Z,20.5557251
2023-08-03T07:20:32.140Z,20.5557251
2023-08-03T07:21:33.191Z,20.5557251
2023-08-03T07:22:34.240Z,20.5557251
2023-08-03T07:23:36.190Z,20.50537109
2023-08-03T07:24:39.018Z,20.50537109
2023-08-03T07:25:38.216Z,20.49530029
2023-08-03T07:26:39.211Z,20.50537109
2023-08-03T07:27:40.286Z,20.47515869
2023-08-03T07:28:42.605Z,20.45501709
2023-08-03T07:30:15.635Z,20.45501709
2023-08-03T07:31:17.135Z,20.44494629
2023-08-03T07:32:18.134Z,20.42480469
2023-08-03T07:33:19.357Z,20.41473389
2023-08-03T07:34:20.647Z,20.41473389
2023-08-03T07:35:21.696Z,20.41473389
2023-08-03T07:36:22.743Z,20.41473389
2023-08-03T07:37:23.770Z,20.40466309
2023-08-03T07:38:24.802Z,20.38452148
2023-08-03T07:39:25.991Z,20.37445068
2023-08-03T07:40:27.767Z,20.38452148
2023-08-03T07:41:29.784Z,20.40466309
2023-08-03T07:42:30.911Z,20.40466309
2023-08-03T07:43:32.682Z,20.42480469
2023-08-03T07:46:36.180Z,20.49530029
2023-08-03T07:47:37.340Z,20.5355835
2023-08-03T07:48:38.452Z,20.5657959
2023-08-03T07:49:39.531Z,20.5960083
2023-08-03T07:50:41.182Z,20.6262207
2023-08-03T07:51:42.812Z,20.6262207
2023-08-03T07:53:14.872Z,20.6362915
2023-08-03T07:54:16.032Z,20.5758667
2023-08-03T07:55:17.116Z,20.5557251
2023-08-03T07:56:18.092Z,20.5657959
2023-08-03T07:57:19.269Z,20.5657959
2023-08-03T07:58:21.200Z,20.5758667
2023-08-03T07:59:22.345Z,20.5960083
2023-08-03T08:00:24.277Z,20.5960083
2023-08-03T08:01:26.231Z,20.5960083
2023-08-03T08:02:27.168Z,20.5758667
2023-08-03T08:03:28.249Z,20.5657959
2023-08-03T08:04:29.361Z,20.5557251
2023-08-03T08:05:30.547Z,20.5557251
2023-08-03T08:06:31.579Z,20.5557251
2023-08-03T08:07:34.051Z,20.5557251
2023-08-03T08:08:33.641Z,20.5960083
2023-08-03T08:09:34.739Z,20.5758667
2023-08-03T08:10:36.691Z,20.6262207
2023-08-03T08:11:37.842Z,20.65643311
2023-08-03T08:12:39.643Z,20.67657471
2023-08-03T08:13:40.660Z,20.67657471
2023-08-03T08:14:41.706Z,20.6060791
2023-08-03T08:16:13.877Z,20.6262207
2023-08-03T08:17:14.984Z,20.6362915
2023-08-03T08:18:16.117Z,20.67657471
2023-08-03T08:19:17.141Z,20.68664551
2023-08-03T08:20:18.203Z,20.68664551
2023-08-03T08:21:20.793Z,20.68664551
2023-08-03T08:22:21.910Z,20.70678711
2023-08-03T08:23:23.043Z,20.68664551
2023-08-03T08:24:24.707Z,20.68664551
2023-08-03T08:25:26.047Z,20.68664551
2023-08-03T08:26:27.264Z,20.70678711
2023-08-03T08:27:28.548Z,20.70678711
2023-08-03T08:28:35.217Z,20.70678711
2023-08-03T08:29:31.491Z,20.68664551
2023-08-03T08:30:33.246Z,20.70678711
2023-08-03T08:32:36.383Z,20.71685791
2023-08-03T08:33:37.785Z,20.72692871
2023-08-03T08:34:39.184Z,20.74707031
2023-08-03T08:35:40.534Z,20.75714111
2023-08-03T08:36:42.338Z,20.77728271
2023-08-03T08:38:14.617Z,20.77728271
2023-08-03T08:39:15.880Z,20.77728271
2023-08-03T08:40:17.266Z,20.78735352
2023-08-03T08:41:19.445Z,20.80749512
2023-08-03T08:42:20.807Z,20.84777832
2023-08-03T08:43:22.911Z,20.90820313
2023-08-03T08:44:24.856Z,20.93841553
2023-08-03T08:45:26.109Z,20.97869873
2023-08-03T08:46:27.529Z,21.02905273
2023-08-03T08:47:28.923Z,21.08947754
2023-08-03T08:50:33.320Z,21.22039795
2023-08-03T08:53:15.086Z,21.24053955
2023-08-03T09:00:16.793Z,21.30096436
2023-08-03T09:01:18.876Z,21.31103516
2023-08-03T09:02:20.772Z,21.34124756
2023-08-03T09:03:22.268Z,21.34124756
2023-08-03T09:06:26.136Z,21.27075195
2023-08-03T09:07:27.391Z,21.26068115
2023-08-03T09:08:28.798Z,21.24053955
2023-08-03T09:09:29.982Z,21.24053955
2023-08-03T09:10:31.245Z,21.22039795
2023-08-03T09:11:33.600Z,21.22039795
2023-08-03T09:12:34.684Z,21.22039795
2023-08-03T09:13:36.919Z,21.22039795
2023-08-03T09:14:38.349Z,21.19018555
2023-08-03T09:15:39.893Z,21.18011475
2023-08-03T09:16:41.867Z,21.12976074
2023-08-03T09:18:14.033Z,21.12976074
2023-08-03T09:19:15.766Z,21.12976074
2023-08-03T09:23:21.723Z,21.10961914
2023-08-03T09:25:39.185Z,21.10961914
2023-08-03T09:29:30.535Z,21.27075195
2023-08-03T09:31:33.403Z,21.34124756
2023-08-03T09:32:34.638Z,21.37145996
2023-08-03T09:33:35.951Z,21.42181396
2023-08-03T09:36:39.737Z,21.48223877
2023-08-03T09:40:15.312Z,21.52252197
2023-08-03T09:41:17.234Z,21.52252197
2023-08-03T09:44:22.066Z,21.52252197
2023-08-03T09:46:24.661Z,21.52252197
2023-08-03T09:47:28.781Z,21.53259277
2023-08-03T09:48:26.903Z,21.53259277
2023-08-03T09:49:28.141Z,21.53259277
2023-08-03T09:50:29.457Z,21.53259277
2023-08-03T09:51:31.494Z,21.53259277
2023-08-03T09:53:34.931Z,21.55273438
2023-08-03T09:55:06.864Z,21.52252197
2023-08-03T09:55:37.402Z,21.51245117
2023-08-03T09:56:38.743Z,21.46209717
2023-08-03T09:57:41.364Z,21.43188477
2023-08-03T09:59:13.844Z,21.45202637
2023-08-03T10:00:15.122Z,21.46209717
2023-08-03T10:01:17.305Z,21.49230957
2023-08-03T10:02:23.983Z,21.51245117
2023-08-03T10:03:20.249Z,21.52252197
2023-08-03T10:04:21.972Z,21.53259277
2023-08-03T10:05:23.120Z,21.53259277
2023-08-03T10:06:24.378Z,21.52252197
2023-08-03T10:07:25.703Z,21.52252197
2023-08-03T10:08:26.912Z,21.52252197
2023-08-03T10:09:28.249Z,21.51245117
2023-08-03T10:10:29.471Z,21.51245117
2023-08-03T10:11:31.354Z,21.51245117
2023-08-03T10:12:32.555Z,21.51245117
2023-08-03T10:13:33.876Z,21.49230957
2023-08-03T10:14:35.947Z,21.51245117
2023-08-03T10:15:38.511Z,21.52252197
2023-08-03T10:16:38.690Z,21.53259277
2023-08-03T10:17:39.912Z,21.51245117
2023-08-03T10:19:12.104Z,21.43188477
2023-08-03T10:20:13.693Z,21.42181396
2023-08-03T10:21:15.815Z,21.40167236
2023-08-03T10:22:17.115Z,21.40167236
2023-08-03T10:23:19.280Z,21.40167236
2023-08-03T10:24:21.297Z,21.42181396
2023-08-03T10:25:22.694Z,21.43188477
2023-08-03T10:26:24.096Z,21.43188477
2023-08-03T10:27:26.261Z,21.48223877
2023-08-03T10:28:27.960Z,21.49230957
2023-08-03T10:29:29.219Z,21.52252197
2023-08-03T10:30:30.375Z,21.55273438
2023-08-03T10:31:32.425Z,21.56280518
2023-08-03T10:32:34.468Z,21.59301758
2023-08-03T10:33:35.727Z,21.61315918
2023-08-03T10:34:37.748Z,21.59301758
2023-08-03T10:35:39.012Z,21.61315918
2023-08-03T10:36:42.072Z,21.58294678
2023-08-03T10:38:12.375Z,21.61315918
2023-08-03T10:39:13.901Z,21.63330078
2023-08-03T10:40:15.343Z,21.64337158
2023-08-03T10:41:16.624Z,21.67358398
2023-08-03T10:42:18.258Z,21.68365479
2023-08-03T10:43:19.514Z,21.70379639
2023-08-03T10:44:21.444Z,21.71386719
2023-08-03T10:45:22.722Z,21.70379639
2023-08-03T10:46:23.904Z,21.68365479
2023-08-03T10:47:25.378Z,21.66351318
2023-08-03T10:48:26.321Z,21.64337158
2023-08-03T10:49:27.533Z,21.63330078
2023-08-03T10:50:29.787Z,21.63330078
2023-08-03T10:51:31.749Z,21.59301758
2023-08-03T10:52:32.849Z,21.58294678
2023-08-03T10:53:33.927Z,21.58294678
2023-08-03T10:54:35.155Z,21.58294678
2023-08-03T10:55:37.301Z,21.58294678
2023-08-03T10:56:38.573Z,21.58294678
2023-08-03T10:57:39.860Z,21.58294678
2023-08-03T10:59:12.261Z,21.58294678
2023-08-03T11:00:13.732Z,21.59301758
2023-08-03T11:01:15.863Z,21.63330078
2023-08-03T11:02:17.813Z,21.64337158
2023-08-03T11:03:19.167Z,21.66351318
2023-08-03T11:04:20.948Z,21.67358398
2023-08-03T11:05:22.015Z,21.70379639
2023-08-03T11:06:23.271Z,21.67358398
2023-08-03T11:07:24.556Z,21.68365479
2023-08-03T11:08:25.591Z,21.66351318
2023-08-03T11:09:26.678Z,21.66351318
2023-08-03T11:10:27.902Z,21.66351318
2023-08-03T11:11:29.213Z,21.66351318
2023-08-03T11:12:31.861Z,21.67358398
2023-08-03T11:13:33.299Z,21.68365479
2023-08-03T11:14:35.543Z,21.73400879
2023-08-03T11:15:36.875Z,21.74407959
2023-08-03T11:16:38.182Z,21.73400879
2023-08-03T11:17:39.426Z,21.70379639
2023-08-03T11:19:11.535Z,21.68365479
2023-08-03T11:20:13.056Z,21.71386719
2023-08-03T11:21:13.977Z,21.75415039
2023-08-03T11:22:15.839Z,21.824646
2023-08-03T11:23:17.031Z,21.8649292
2023-08-03T11:24:18.921Z,21.9052124
2023-08-03T11:25:20.812Z,21.95556641
2023-08-03T11:26:21.998Z,21.98577881
2023-08-03T11:27:23.098Z,21.98577881
2023-08-03T11:28:25.238Z,22.00592041
2023-08-03T11:29:26.424Z,21.98577881
2023-08-03T11:30:27.709Z,21.97570801
2023-08-03T11:31:29.956Z,21.9354248
2023-08-03T11:32:31.935Z,21.8951416
2023-08-03T11:33:33.030Z,21.8649292
2023-08-03T11:34:34.892Z,21.8649292
2023-08-03T11:35:36.152Z,21.9052124
2023-08-03T11:36:37.476Z,21.9052124
2023-08-03T11:37:38.809Z,21.9354248
2023-08-03T11:39:10.880Z,21.97570801
2023-08-03T11:40:12.145Z,22.03613281
2023-08-03T11:41:15.687Z,22.07641602
2023-08-03T11:42:15.792Z,22.13684082
2023-08-03T11:43:17.064Z,22.18719482
2023-08-03T11:44:18.861Z,22.22747803
2023-08-03T11:45:19.925Z,22.28790283
2023-08-03T11:46:21.310Z,22.28790283
2023-08-03T11:47:22.549Z,22.23754883
2023-08-03T11:48:23.890Z,22.22747803
2023-08-03T11:49:26.022Z,22.16705322
2023-08-03T11:50:26.985Z,22.11669922
2023-08-03T11:51:28.319Z,22.07641602
2023-08-03T11:52:29.657Z,22.07641602